Time;durP1;ratioP1;P1;durP2;ratioP2;P2;SDS_P1;SDS_P2;PMS_P1;PMS_P2;Temp;Humidity;BMP_temperature;BMP_pressure;BME280_temperature;BME280_humidity;BME280_pressure;Samples;Min_cycle;Max_cycle;Signal;HPM_P1;HPM_P2
2022/03/30 00:01:45;;;;;;;7.83;2.50;;;7.90;77.40;;;;;;4979125;28;20576;-49
2022/03/30 00:04:11;;;;;;;9.03;2.27;;;7.90;77.60;;;;;;4979299;28;20525;-46
2022/03/30 00:06:38;;;;;;;9.93;2.77;;;7.80;77.90;;;;;;4979271;28;20458;-57
2022/03/30 00:09:04;;;;;;;8.90;2.50;;;7.80;77.90;;;;;;4979568;28;20470;-54
2022/03/30 00:11:32;;;;;;;3.53;2.07;;;7.80;78.40;;;;;;4979091;28;20528;-52
2022/03/30 00:13:59;;;;;;;8.43;2.03;;;7.80;78.70;;;;;;4978777;28;20916;-52
2022/03/30 00:16:26;;;;;;;5.27;1.90;;;7.80;78.80;;;;;;4978817;28;20554;-52
2022/03/30 00:18:53;;;;;;;3.13;2.00;;;7.80;78.70;;;;;;4978690;28;20474;-50
2022/03/30 00:21:20;;;;;;;10.97;2.07;;;7.80;78.90;;;;;;4979033;28;20450;-54
2022/03/30 00:23:46;;;;;;;6.00;2.13;;;7.70;79.30;;;;;;4978603;28;20497;-55
2022/03/30 00:26:13;;;;;;;7.47;2.30;;;7.70;79.70;;;;;;4978851;28;20486;-56
2022/03/30 00:28:41;;;;;;;6.00;2.20;;;7.70;79.70;;;;;;4978599;28;20534;-47
2022/03/30 00:31:08;;;;;;;3.73;2.10;;;7.60;80.20;;;;;;4978625;28;20427;-54
2022/03/30 00:33:35;;;;;;;6.47;2.20;;;7.60;80.50;;;;;;4978689;28;20517;-59
2022/03/30 00:36:02;;;;;;;3.53;1.80;;;7.60;80.80;;;;;;4978577;28;20766;-52
2022/03/30 00:38:28;;;;;;;8.47;2.73;;;7.60;81.40;;;;;;4978647;28;20509;-51
2022/03/30 00:40:55;;;;;;;5.40;1.97;;;7.60;81.70;;;;;;4978528;28;20490;-57
2022/03/30 00:43:22;;;;;;;3.47;1.40;;;7.60;82.20;;;;;;4978514;28;20478;-48
2022/03/30 00:45:49;;;;;;;8.20;2.23;;;7.70;82.20;;;;;;4978497;28;20475;-56
2022/03/30 00:48:16;;;;;;;12.07;1.77;;;7.60;82.40;;;;;;4978481;28;20447;-53
2022/03/30 00:50:43;;;;;;;22.83;2.57;;;7.60;82.60;;;;;;4978416;28;20478;-53
2022/03/30 00:53:09;;;;;;;8.20;1.50;;;7.50;83.10;;;;;;4978135;28;20458;-55
2022/03/30 00:55:36;;;;;;;7.23;2.00;;;7.50;83.50;;;;;;4978408;28;20505;-55
2022/03/30 00:58:03;;;;;;;5.70;2.33;;;7.50;83.90;;;;;;4978368;28;20510;-53
2022/03/30 01:00:31;;;;;;;8.70;2.20;;;7.50;84.40;;;;;;4978348;28;20474;-49
2022/03/30 01:02:59;;;;;;;5.00;2.87;;;7.50;84.70;;;;;;4978036;28;20490;-51
2022/03/30 01:05:26;;;;;;;16.33;2.10;;;7.50;85.10;;;;;;4977899;28;20439;-54
2022/03/30 01:07:53;;;;;;;14.30;2.23;;;7.50;85.60;;;;;;4978093;28;20470;-54
2022/03/30 01:10:20;;;;;;;3.30;1.83;;;7.50;85.70;;;;;;4978155;28;20443;-51
2022/03/30 01:12:52;;;;;;;3.77;1.43;;;7.50;86.20;;;;;;4977760;28;20458;-52
2022/03/30 01:15:19;;;;;;;5.27;1.83;;;7.50;86.50;;;;;;4978186;28;20459;-51
2022/03/30 01:17:46;;;;;;;8.70;1.60;;;7.40;87.40;;;;;;4977872;28;20578;-52
2022/03/30 01:20:18;;;;;;;4.50;1.97;;;7.40;87.70;;;;;;4977894;28;20493;-51
2022/03/30 01:22:46;;;;;;;3.40;1.80;;;7.40;88.80;;;;;;4977792;28;20510;-50
2022/03/30 01:25:13;;;;;;;4.37;2.20;;;7.30;88.10;;;;;;4977719;28;20759;-49
2022/03/30 01:27:40;;;;;;;4.20;1.37;;;7.20;88.60;;;;;;4977834;28;20509;-57
2022/03/30 01:33:02;;;;;;;4.33;1.80;;;7.20;90.00;;;;;;4977636;28;20852;-54
2022/03/30 01:35:29;;;;;;;9.70;2.93;;;7.10;90.40;;;;;;4977452;28;20451;-52
2022/03/30 01:37:57;;;;;;;14.63;2.83;;;7.10;90.70;;;;;;4977534;28;20431;-50
2022/03/30 01:40:24;;;;;;;4.40;2.60;;;7.10;91.00;;;;;;4977575;28;20447;-54
2022/03/30 01:42:50;;;;;;;5.90;2.87;;;7.00;91.20;;;;;;4976581;28;20488;-50
2022/03/30 01:45:17;;;;;;;17.30;3.53;;;7.00;91.50;;;;;;4977243;28;20463;-51
2022/03/30 01:47:52;;;;;;;9.87;3.73;;;7.00;91.70;;;;;;4977150;28;20947;-53
2022/03/30 01:50:20;;;;;;;7.30;3.40;;;7.00;92.00;;;;;;4977453;28;20960;-54
2022/03/30 01:52:46;;;;;;;7.17;3.50;;;7.00;92.10;;;;;;4977060;28;21045;-53
2022/03/30 01:55:14;;;;;;;9.20;3.23;;;6.90;92.40;;;;;;4977324;28;20462;-55
2022/03/30 01:57:41;;;;;;;5.70;2.63;;;6.90;92.70;;;;;;4977237;28;20513;-53
2022/03/30 02:00:10;;;;;;;6.37;2.87;;;6.90;93.00;;;;;;4977273;28;20447;-55
2022/03/30 02:02:37;;;;;;;13.03;2.70;;;6.90;93.10;;;;;;4977084;28;20486;-51
2022/03/30 02:05:05;;;;;;;8.47;2.10;;;6.80;93.40;;;;;;4977255;28;20525;-54
2022/03/30 02:07:32;;;;;;;2.60;1.87;;;6.80;93.70;;;;;;4977252;28;20446;-56
2022/03/30 02:09:58;;;;;;;7.27;2.60;;;6.80;93.90;;;;;;4977324;28;20474;-51
2022/03/30 02:12:26;;;;;;;2.30;1.43;;;6.70;94.00;;;;;;4976965;28;20457;-51
2022/03/30 02:14:53;;;;;;;7.60;2.57;;;6.70;94.20;;;;;;4976767;28;20482;-51
2022/03/30 02:17:23;;;;;;;11.33;3.20;;;6.70;94.40;;;;;;4976960;28;20747;-57
2022/03/30 02:19:50;;;;;;;3.20;1.97;;;6.70;94.60;;;;;;4976716;28;20490;-50
2022/03/30 02:22:16;;;;;;;6.03;2.20;;;6.70;94.80;;;;;;4976537;28;20435;-50
2022/03/30 02:24:43;;;;;;;8.47;2.00;;;6.70;94.80;;;;;;4976467;28;21008;-53
2022/03/30 02:27:09;;;;;;;4.97;1.70;;;6.70;95.00;;;;;;4976768;28;20450;-54
2022/03/30 02:29:37;;;;;;;3.50;2.07;;;6.70;95.20;;;;;;4976742;28;20482;-53
2022/03/30 02:32:05;;;;;;;6.87;2.10;;;6.60;95.50;;;;;;4976576;28;20475;-51
2022/03/30 02:34:32;;;;;;;8.60;1.83;;;6.60;95.60;;;;;;4976632;28;20916;-57
2022/03/30 02:36:59;;;;;;;7.57;2.00;;;6.60;95.80;;;;;;4976684;28;20470;-55
2022/03/30 02:39:26;;;;;;;8.40;2.13;;;6.60;96.50;;;;;;4977343;28;20514;-49
2022/03/30 02:41:55;;;;;;;2.80;1.63;;;6.60;96.20;;;;;;4977117;28;20494;-47
2022/03/30 02:44:22;;;;;;;5.93;1.53;;;6.60;96.40;;;;;;4977229;28;20545;-51
2022/03/30 02:46:50;;;;;;;8.93;1.60;;;6.60;96.60;;;;;;4977242;28;20450;-51
2022/03/30 02:49:17;;;;;;;4.53;1.83;;;6.60;96.80;;;;;;4977391;28;20482;-56
2022/03/30 02:51:44;;;;;;;7.83;2.37;;;6.60;97.00;;;;;;4976554;28;20955;-51
2022/03/30 02:54:11;;;;;;;6.30;1.90;;;6.50;97.00;;;;;;4975444;28;20936;-50
2022/03/30 02:56:37;;;;;;;3.60;1.93;;;6.50;97.20;;;;;;4976182;28;20455;-54
2022/03/30 02:59:04;;;;;;;12.20;2.03;;;6.50;97.60;;;;;;4976019;28;20483;-52
2022/03/30 03:01:31;;;;;;;7.23;1.97;;;6.50;97.60;;;;;;4977597;28;20451;-51
2022/03/30 03:03:59;;;;;;;7.00;2.50;;;6.50;97.80;;;;;;4976694;28;20483;-50
2022/03/30 03:06:25;;;;;;;3.73;1.33;;;6.50;98.00;;;;;;4976133;28;20962;-50
2022/03/30 03:08:52;;;;;;;9.60;1.93;;;6.50;98.20;;;;;;4976134;28;20451;-50
2022/03/30 03:11:19;;;;;;;10.23;2.47;;;6.50;98.30;;;;;;4976212;28;20478;-49
2022/03/30 03:13:45;;;;;;;6.47;2.80;;;6.50;98.30;;;;;;4976122;28;20513;-51
2022/03/30 03:16:13;;;;;;;11.70;1.90;;;6.50;98.30;;;;;;4976239;28;20474;-52
2022/03/30 03:18:39;;;;;;;2.10;1.50;;;6.50;98.30;;;;;;4976862;28;20463;-52
2022/03/30 03:21:07;;;;;;;6.40;1.63;;;6.50;98.50;;;;;;4978290;28;20458;-57
2022/03/30 03:23:34;;;;;;;7.93;1.83;;;6.40;99.00;;;;;;4976293;28;20841;-50
2022/03/30 03:26:01;;;;;;;4.47;1.80;;;6.40;98.70;;;;;;4975993;28;20471;-53
2022/03/30 03:28:27;;;;;;;3.83;1.93;;;6.40;98.70;;;;;;4975932;28;20485;-51
2022/03/30 03:30:54;;;;;;;5.03;1.80;;;6.40;98.90;;;;;;4976085;28;20447;-51
2022/03/30 03:33:21;;;;;;;6.03;1.37;;;6.40;99.20;;;;;;4975959;28;20474;-48
2022/03/30 03:35:48;;;;;;;2.83;1.50;;;6.40;99.20;;;;;;4975622;28;20975;-49
2022/03/30 03:38:16;;;;;;;12.00;3.20;;;6.30;99.20;;;;;;4975878;28;20558;-49
2022/03/30 03:40:43;;;;;;;5.47;2.20;;;6.30;99.20;;;;;;4977617;28;20753;-52
2022/03/30 03:43:10;;;;;;;6.00;1.43;;;6.30;99.50;;;;;;4976673;28;20928;-48
2022/03/30 03:45:37;;;;;;;8.63;1.77;;;6.30;99.60;;;;;;4975990;28;20541;-49
2022/03/30 03:48:04;;;;;;;5.73;1.73;;;6.30;99.60;;;;;;4975605;28;20943;-49
2022/03/30 03:50:30;;;;;;;5.10;1.67;;;6.30;99.90;;;;;;4975482;28;20467;-52
2022/03/30 03:52:57;;;;;;;3.10;1.30;;;6.20;99.90;;;;;;4975540;28;20439;-52
2022/03/30 03:55:25;;;;;;;4.37;1.50;;;6.20;99.90;;;;;;4975735;28;20806;-52
2022/03/30 03:57:52;;;;;;;7.67;1.50;;;6.20;99.90;;;;;;4975512;28;20557;-47
2022/03/30 04:00:19;;;;;;;2.50;1.20;;;6.30;99.90;;;;;;4975433;28;20537;-50
2022/03/30 04:02:46;;;;;;;4.60;1.80;;;6.20;99.90;;;;;;4975761;28;20542;-51
2022/03/30 04:05:14;;;;;;;3.00;1.43;;;6.20;99.90;;;;;;4976804;28;20449;-55
2022/03/30 04:07:42;;;;;;;7.17;1.73;;;6.20;99.90;;;;;;4979963;28;20538;-53
2022/03/30 04:10:09;;;;;;;6.50;2.13;;;6.20;99.90;;;;;;4980275;28;20451;-50
2022/03/30 04:12:38;;;;;;;8.13;2.23;;;6.20;99.90;;;;;;4980777;28;21002;-57
2022/03/30 04:15:06;;;;;;;2.90;1.80;;;6.10;99.90;;;;;;4979825;28;20450;-53
2022/03/30 04:17:33;;;;;;;9.00;2.57;;;6.10;99.90;;;;;;4978975;28;20478;-53
2022/03/30 04:20:00;;;;;;;5.00;1.97;;;6.10;99.90;;;;;;4978763;28;20807;-49
2022/03/30 04:22:27;;;;;;;8.77;1.53;;;6.10;99.90;;;;;;4978966;28;20470;-47
2022/03/30 04:24:53;;;;;;;6.10;2.20;;;6.10;99.90;;;;;;4979800;28;20482;-53
2022/03/30 04:27:20;;;;;;;4.23;1.70;;;6.10;99.90;;;;;;4979676;28;20454;-53
2022/03/30 04:29:48;;;;;;;6.17;1.90;;;6.00;99.90;;;;;;4978748;28;20462;-50
2022/03/30 04:32:15;;;;;;;5.27;2.03;;;5.90;99.90;;;;;;4978893;28;20467;-46
2022/03/30 04:34:42;;;;;;;4.97;2.13;;;6.00;99.90;;;;;;4978797;28;20466;-51
2022/03/30 04:37:08;;;;;;;7.47;1.70;;;6.00;99.90;;;;;;4978775;28;20458;-52
2022/03/30 04:39:35;;;;;;;8.63;2.40;;;6.00;99.90;;;;;;4982386;28;20478;-50
2022/03/30 04:42:02;;;;;;;6.67;2.00;;;6.00;99.90;;;;;;4999973;28;20446;-50
2022/03/30 04:44:29;;;;;;;9.43;3.07;;;6.00;99.90;;;;;;5002157;28;20518;-48
2022/03/30 04:46:57;;;;;;;6.07;1.80;;;6.10;99.90;;;;;;4992833;28;20434;-52
2022/03/30 04:49:24;;;;;;;11.07;3.17;;;6.10;99.90;;;;;;5005351;28;20481;-48
2022/03/30 04:51:51;;;;;;;5.57;2.50;;;6.10;99.90;;;;;;5003689;28;20458;-52
2022/03/30 04:54:18;;;;;;;4.70;1.93;;;6.10;99.90;;;;;;4994078;28;21019;-50
2022/03/30 04:56:50;;;;;;;7.10;2.27;;;6.20;99.90;;;;;;5003328;28;20478;-51
2022/03/30 04:59:16;;;;;;;6.07;1.60;;;6.20;99.90;;;;;;4990458;28;20482;-51
2022/03/30 05:01:43;;;;;;;4.10;2.07;;;6.20;99.90;;;;;;4989984;28;20522;-50
2022/03/30 05:04:11;;;;;;;10.63;2.93;;;6.20;99.90;;;;;;4992166;28;20998;-51
2022/03/30 05:06:38;;;;;;;8.33;2.17;;;6.20;99.90;;;;;;4986835;28;20438;-46
2022/03/30 05:09:04;;;;;;;10.33;2.27;;;6.20;99.90;;;;;;4985013;28;20439;-50
2022/03/30 05:11:31;;;;;;;8.57;2.43;;;6.20;99.90;;;;;;4988472;28;20454;-49
2022/03/30 05:13:58;;;;;;;7.20;2.17;;;6.30;99.90;;;;;;4986042;28;20571;-52
2022/03/30 05:16:25;;;;;;;5.80;2.07;;;6.30;99.90;;;;;;4986312;28;20450;-51
2022/03/30 05:18:51;;;;;;;4.27;2.20;;;6.20;99.90;;;;;;4986096;28;20528;-48
2022/03/30 05:21:20;;;;;;;5.53;5.03;;;6.20;99.90;;;;;;4980712;28;20509;-49
2022/03/30 05:23:46;;;;;;;6.70;2.60;;;6.30;99.90;;;;;;4977667;28;20483;-46
2022/03/30 05:26:13;;;;;;;9.50;2.77;;;6.30;99.90;;;;;;4977943;28;20454;-54
2022/03/30 05:28:40;;;;;;;14.03;4.70;;;6.30;99.90;;;;;;4977848;28;20533;-50
2022/03/30 05:31:07;;;;;;;5.13;2.27;;;6.30;99.90;;;;;;4977410;28;20454;-54
2022/03/30 05:33:34;;;;;;;13.00;2.37;;;6.30;99.90;;;;;;4977557;28;20446;-52
2022/03/30 05:36:01;;;;;;;8.57;2.30;;;6.30;99.90;;;;;;4977805;28;20485;-48
2022/03/30 05:38:29;;;;;;;7.93;2.07;;;6.30;99.90;;;;;;4978696;28;20478;-52
2022/03/30 05:40:56;;;;;;;7.70;1.87;;;6.40;99.90;;;;;;4978400;28;21030;-49
2022/03/30 05:43:25;;;;;;;9.17;2.17;;;6.40;99.90;;;;;;4977337;28;20476;-49
2022/03/30 05:45:52;;;;;;;18.73;2.50;;;6.40;99.90;;;;;;4977392;28;20470;-49
2022/03/30 05:48:18;;;;;;;6.00;1.80;;;6.50;99.90;;;;;;4978289;28;20435;-53
2022/03/30 05:50:45;;;;;;;8.27;2.23;;;6.50;99.90;;;;;;4978054;28;20458;-49
2022/03/30 05:53:13;;;;;;;11.73;2.80;;;6.50;99.90;;;;;;4977322;28;20459;-46
2022/03/30 05:55:44;;;;;;;10.20;2.53;;;6.60;99.90;;;;;;4977193;28;20497;-48
2022/03/30 05:58:11;;;;;;;8.73;2.70;;;6.70;99.90;;;;;;4980106;28;20477;-47
2022/03/30 06:00:38;;;;;;;4.40;2.47;;;6.70;99.90;;;;;;4994797;28;20451;-47
2022/03/30 06:03:05;;;;;;;4.20;1.60;;;6.80;99.90;;;;;;4992231;28;20450;-48
2022/03/30 06:05:31;;;;;;;9.30;3.73;;;6.80;99.90;;;;;;4981206;28;20482;-49
2022/03/30 06:07:59;;;;;;;5.90;2.40;;;6.90;99.90;;;;;;4990373;28;20471;-50
2022/03/30 06:10:27;;;;;;;11.03;2.17;;;6.90;99.90;;;;;;4984998;28;20477;-49
2022/03/30 06:12:56;;;;;;;4.43;1.70;;;7.00;99.90;;;;;;4995696;28;20473;-50
2022/03/30 06:15:23;;;;;;;4.50;1.90;;;7.00;99.90;;;;;;4996328;28;20446;-49
2022/03/30 06:17:50;;;;;;;7.37;2.37;;;7.10;99.90;;;;;;4994602;28;20466;-52
2022/03/30 06:20:17;;;;;;;5.13;1.97;;;7.20;99.90;;;;;;4995570;28;20482;-49
2022/03/30 06:22:44;;;;;;;16.63;2.50;;;7.30;99.90;;;;;;4995489;28;20978;-47
2022/03/30 06:25:12;;;;;;;5.37;2.10;;;7.40;99.90;;;;;;4995744;28;20489;-51
2022/03/30 06:27:40;;;;;;;3.03;2.20;;;7.50;99.90;;;;;;4995634;28;20474;-49
2022/03/30 06:30:10;;;;;;;7.67;2.40;;;7.60;99.90;;;;;;4995908;28;20464;-47
2022/03/30 06:32:37;;;;;;;4.23;1.87;;;7.70;99.90;;;;;;4995375;28;20478;-49
2022/03/30 06:35:04;;;;;;;7.87;2.80;;;7.70;99.90;;;;;;4997362;28;21063;-54
2022/03/30 06:37:30;;;;;;;10.27;4.60;;;7.90;99.90;;;;;;4996006;28;20549;-48
2022/03/30 06:39:57;;;;;;;8.40;2.77;;;7.90;99.90;;;;;;4995904;28;20827;-51
2022/03/30 06:42:24;;;;;;;14.53;3.27;;;8.00;99.90;;;;;;4995664;28;20470;-50
2022/03/30 06:44:51;;;;;;;5.07;1.63;;;8.10;99.90;;;;;;4995700;28;20540;-48
2022/03/30 06:47:19;;;;;;;8.03;2.80;;;8.20;99.90;;;;;;4995553;28;20482;-50
2022/03/30 06:49:46;;;;;;;8.00;2.73;;;8.30;99.90;;;;;;4995783;28;20457;-47
2022/03/30 06:52:13;;;;;;;5.00;2.30;;;8.40;99.90;;;;;;4995937;28;20482;-56
2022/03/30 06:54:40;;;;;;;6.43;2.43;;;8.50;99.90;;;;;;4996117;28;20521;-49
2022/03/30 06:57:07;;;;;;;5.10;1.80;;;8.60;99.90;;;;;;4997457;28;20907;-48
2022/03/30 06:59:34;;;;;;;4.50;2.80;;;8.60;99.90;;;;;;4995833;28;20911;-48
2022/03/30 07:02:01;;;;;;;10.00;2.17;;;8.70;99.90;;;;;;4995452;28;20516;-50
2022/03/30 07:04:29;;;;;;;8.77;2.50;;;8.80;99.90;;;;;;4996597;28;20516;-47
2022/03/30 07:12:24;;;;;;;4.10;2.10;;;8.90;99.90;;;;;;4996719;28;20508;-48
2022/03/30 07:14:50;;;;;;;4.90;1.93;;;9.00;99.90;;;;;;4997863;28;20431;-53
2022/03/30 07:17:17;;;;;;;16.53;3.10;;;9.10;99.70;;;;;;4997270;28;20438;-55
2022/03/30 07:19:45;;;;;;;3.17;1.70;;;9.10;99.10;;;;;;4996326;28;20435;-52
2022/03/30 07:22:13;;;;;;;8.83;2.67;;;9.20;98.90;;;;;;4995577;28;20446;-52
2022/03/30 07:24:40;;;;;;;4.00;1.93;;;9.30;99.20;;;;;;4995110;28;20497;-49
2022/03/30 07:27:07;;;;;;;15.00;2.40;;;9.30;98.60;;;;;;4995248;28;20520;-50
2022/03/30 07:29:34;;;;;;;6.77;2.30;;;9.30;98.40;;;;;;4995415;28;20852;-53
2022/03/30 07:32:01;;;;;;;5.40;2.53;;;9.40;98.50;;;;;;4995313;28;20464;-49
2022/03/30 07:34:28;;;;;;;12.90;2.20;;;9.50;97.90;;;;;;4995677;28;20815;-53
2022/03/30 07:36:56;;;;;;;8.80;1.70;;;9.50;97.40;;;;;;4997905;28;20900;-52
2022/03/30 07:39:23;;;;;;;6.17;2.47;;;9.50;97.10;;;;;;4996070;28;20450;-50
2022/03/30 07:41:49;;;;;;;5.03;2.67;;;9.50;97.20;;;;;;4999156;28;20457;-48
2022/03/30 07:44:19;;;;;;;10.90;2.80;;;9.60;97.30;;;;;;4998958;28;20555;-52
2022/03/30 07:46:48;;;;;;;8.83;2.60;;;9.70;97.10;;;;;;4998932;28;20475;-51
2022/03/30 07:49:15;;;;;;;10.03;2.73;;;9.60;96.50;;;;;;4998787;28;20544;-48
2022/03/30 07:51:42;;;;;;;8.03;2.70;;;9.70;96.30;;;;;;4998810;28;20442;-53
2022/03/30 07:54:10;;;;;;;4.70;1.63;;;9.80;95.70;;;;;;4998966;28;20537;-49
2022/03/30 07:56:38;;;;;;;5.53;1.23;;;9.80;94.30;;;;;;4998822;28;20854;-48
2022/03/30 07:59:05;;;;;;;3.10;1.90;;;9.70;94.00;;;;;;4999302;28;20488;-53
2022/03/30 08:01:31;;;;;;;9.73;2.27;;;9.60;93.90;;;;;;5000340;28;20442;-50
2022/03/30 08:03:58;;;;;;;4.70;1.80;;;9.50;94.00;;;;;;4998715;28;20469;-53
2022/03/30 08:06:26;;;;;;;8.43;2.40;;;9.60;93.70;;;;;;4998630;28;20523;-50
2022/03/30 08:08:53;;;;;;;6.80;1.93;;;9.60;93.30;;;;;;4998498;28;20484;-49
2022/03/30 08:11:21;;;;;;;4.97;2.10;;;9.80;93.70;;;;;;4998646;28;20446;-49
2022/03/30 08:13:48;;;;;;;10.23;1.80;;;9.90;94.00;;;;;;4998689;28;20469;-52
2022/03/30 08:16:15;;;;;;;4.63;1.67;;;10.10;92.50;;;;;;4998586;28;20446;-49
2022/03/30 08:18:42;;;;;;;4.60;2.40;;;10.20;92.50;;;;;;4998466;28;20473;-53
2022/03/30 08:23:55;;;;;;;10.67;2.93;;;10.30;92.60;;;;;;4999627;28;20545;-52
2022/03/30 08:26:24;;;;;;;7.83;3.03;;;10.30;92.70;;;;;;4998423;28;20493;-51
2022/03/30 08:28:56;;;;;;;8.10;2.63;;;10.40;92.60;;;;;;4998166;28;20484;-54
2022/03/30 08:31:25;;;;;;;7.10;2.47;;;10.50;92.30;;;;;;4998142;28;20887;-51
2022/03/30 08:33:52;;;;;;;8.90;2.03;;;10.60;92.40;;;;;;4998091;28;20580;-47
2022/03/30 08:36:21;;;;;;;8.60;2.60;;;10.80;91.30;;;;;;4998217;28;20746;-52
2022/03/30 08:38:49;;;;;;;4.57;1.90;;;10.90;90.90;;;;;;4998177;28;20532;-49
2022/03/30 08:41:16;;;;;;;6.33;1.87;;;11.10;90.40;;;;;;4997950;28;20513;-52
2022/03/30 08:43:49;;;;;;;4.93;1.67;;;11.20;89.40;;;;;;4998292;28;20488;-49
2022/03/30 08:46:21;;;;;;;7.97;3.07;;;11.40;87.80;;;;;;4999263;28;20470;-52
2022/03/30 08:48:48;;;;;;;4.63;2.63;;;11.50;86.60;;;;;;4998096;28;20473;-50
2022/03/30 08:51:19;;;;;;;5.73;1.67;;;11.50;84.20;;;;;;4997737;28;20516;-50
2022/03/30 08:53:47;;;;;;;3.80;1.40;;;11.50;81.60;;;;;;4997891;28;20484;-49
2022/03/30 08:56:14;;;;;;;10.63;2.90;;;11.50;80.60;;;;;;4997984;28;20873;-53
2022/03/30 08:58:43;;;;;;;3.03;1.80;;;11.50;80.70;;;;;;4997679;28;20508;-53
2022/03/30 09:01:12;;;;;;;4.87;2.23;;;11.50;80.60;;;;;;4997959;28;20520;-48
2022/03/30 09:03:55;;;;;;;8.77;2.60;;;11.60;79.90;;;;;;4998199;28;20536;-54
2022/03/30 09:06:30;;;;;;;6.07;1.70;;;11.70;77.50;;;;;;4998817;28;20480;-50
2022/03/30 09:08:58;;;;;;;5.17;2.60;;;11.70;76.10;;;;;;4999778;28;20493;-56
2022/03/30 09:11:29;;;;;;;3.50;1.50;;;11.70;75.80;;;;;;4998060;28;20449;-46
2022/03/30 09:14:12;;;;;;;7.03;1.60;;;11.70;73.70;;;;;;4997393;28;20477;-51
2022/03/30 09:16:41;;;;;;;7.40;1.83;;;11.70;75.70;;;;;;4997419;28;20446;-47
2022/03/30 09:19:09;;;;;;;4.30;2.10;;;11.60;75.30;;;;;;4997027;28;20989;-47
2022/03/30 09:21:45;;;;;;;4.17;1.60;;;11.60;74.00;;;;;;4997098;28;20512;-48
2022/03/30 09:24:13;;;;;;;11.90;2.30;;;11.50;72.60;;;;;;4996979;28;20453;-51
2022/03/30 09:26:41;;;;;;;6.90;1.60;;;11.50;70.50;;;;;;4996961;28;20465;-50
2022/03/30 09:29:08;;;;;;;11.30;1.83;;;11.50;71.20;;;;;;4997169;28;20480;-50
2022/03/30 09:31:38;;;;;;;4.10;2.47;;;11.60;70.20;;;;;;4998230;28;20453;-60
2022/03/30 09:34:07;;;;;;;7.87;1.67;;;11.50;68.70;;;;;;4997830;28;20509;-48
2022/03/30 09:36:36;;;;;;;4.13;1.90;;;11.50;69.80;;;;;;4997172;28;20525;-49
2022/03/30 09:39:05;;;;;;;4.40;1.60;;;11.60;71.50;;;;;;4996902;28;20950;-52
2022/03/30 09:41:47;;;;;;;3.10;1.63;;;11.60;71.00;;;;;;4996833;28;20464;-54
2022/03/30 09:44:14;;;;;;;4.40;1.97;;;11.70;69.10;;;;;;4996620;28;20946;-51
2022/03/30 09:47:03;;;;;;;5.53;2.07;;;11.80;69.60;;;;;;4996788;28;21038;-54
2022/03/30 09:49:38;;;;;;;8.37;1.93;;;12.00;69.20;;;;;;4996776;28;20469;-52
2022/03/30 09:52:28;;;;;;;8.37;1.80;;;12.20;70.40;;;;;;4996725;28;20452;-51
2022/03/30 09:54:57;;;;;;;4.30;1.93;;;12.20;68.50;;;;;;4997520;28;20497;-52
2022/03/30 09:57:25;;;;;;;5.60;2.03;;;12.30;69.40;;;;;;4997086;28;20779;-51
2022/03/30 10:00:02;;;;;;;2.07;1.27;;;12.50;68.10;;;;;;4996482;28;20549;-53
2022/03/30 10:02:32;;;;;;;3.40;1.60;;;12.60;68.40;;;;;;4995702;28;20474;-50
2022/03/30 10:05:00;;;;;;;4.23;1.70;;;12.70;67.00;;;;;;4995992;28;20485;-50
2022/03/30 10:07:29;;;;;;;5.67;1.50;;;12.80;63.60;;;;;;4996023;28;20497;-50
2022/03/30 10:09:56;;;;;;;8.87;1.67;;;12.60;63.10;;;;;;4996156;28;20481;-51
2022/03/30 10:12:24;;;;;;;3.20;1.80;;;12.70;64.10;;;;;;4996366;28;20477;-52
2022/03/30 10:14:51;;;;;;;5.30;2.20;;;12.70;63.90;;;;;;4996146;28;20484;-50
2022/03/30 10:17:18;;;;;;;5.93;1.70;;;12.70;63.70;;;;;;4997852;28;20529;-60
2022/03/30 10:19:49;;;;;;;1.90;1.43;;;12.70;63.00;;;;;;4996643;28;20919;-52
2022/03/30 10:22:28;;;;;;;3.43;1.73;;;12.70;61.60;;;;;;4996244;28;20450;-53
2022/03/30 10:25:09;;;;;;;5.70;1.93;;;12.60;61.90;;;;;;4995723;28;20551;-50
2022/03/30 10:27:46;;;;;;;5.13;1.10;;;12.60;61.50;;;;;;4996299;28;20454;-49
2022/03/30 10:30:13;;;;;;;5.30;1.67;;;12.50;60.90;;;;;;4995944;28;20539;-49
2022/03/30 10:32:40;;;;;;;13.17;4.60;;;12.50;62.00;;;;;;4997420;28;20457;-51
2022/03/30 10:35:11;;;;;;;3.77;1.40;;;12.50;60.90;;;;;;4997032;28;20478;-53
2022/03/30 10:37:40;;;;;;;4.70;1.90;;;12.50;59.60;;;;;;4996062;28;20452;-51
2022/03/30 10:40:18;;;;;;;5.30;1.90;;;12.40;59.30;;;;;;4995850;28;20577;-50
2022/03/30 10:43:05;;;;;;;2.57;1.40;;;12.30;59.30;;;;;;4995789;28;20449;-47
2022/03/30 10:45:44;;;;;;;9.33;1.80;;;12.20;59.90;;;;;;4995796;28;20494;-52
2022/03/30 10:48:15;;;;;;;5.37;1.77;;;12.20;59.90;;;;;;4996925;28;20950;-55
2022/03/30 10:50:45;;;;;;;3.60;1.53;;;12.30;59.70;;;;;;4995550;28;20556;-56
2022/03/30 10:53:43;;;;;;;5.70;1.97;;;12.30;59.90;;;;;;4995651;28;20434;-54
2022/03/30 10:56:36;;;;;;;5.00;1.63;;;12.30;59.30;;;;;;4993960;28;20442;-55
2022/03/30 10:59:13;;;;;;;3.40;1.50;;;12.30;59.20;;;;;;4995910;28;20780;-55
2022/03/30 11:01:41;;;;;;;4.67;2.20;;;12.20;58.90;;;;;;4995898;28;20516;-53
2022/03/30 11:04:20;;;;;;;6.70;1.90;;;12.10;58.50;;;;;;4995856;28;20464;-55
2022/03/30 11:07:08;;;;;;;3.07;1.80;;;12.10;58.60;;;;;;4995822;28;20474;-57
2022/03/30 11:09:36;;;;;;;4.73;1.50;;;12.10;58.60;;;;;;4995470;28;20470;-55
2022/03/30 11:12:12;;;;;;;9.77;2.70;;;12.10;58.90;;;;;;4995736;28;20556;-52
2022/03/30 11:14:43;;;;;;;4.60;1.93;;;12.20;59.20;;;;;;4996226;28;20560;-54
2022/03/30 11:17:12;;;;;;;2.87;1.70;;;12.20;59.40;;;;;;4999691;28;20940;-52
2022/03/30 11:20:04;;;;;;;5.93;1.43;;;12.20;59.60;;;;;;4999462;28;20928;-55
2022/03/30 11:22:33;;;;;;;5.23;2.00;;;12.20;59.70;;;;;;4999171;28;20804;-50
2022/03/30 11:25:09;;;;;;;5.23;2.57;;;12.30;60.10;;;;;;4999111;28;20486;-52
2022/03/30 11:27:36;;;;;;;3.57;2.20;;;12.20;60.10;;;;;;4999930;28;20458;-52
2022/03/30 11:30:12;;;;;;;9.03;2.43;;;12.30;60.20;;;;;;4999208;28;20477;-56
2022/03/30 11:33:06;;;;;;;4.10;2.00;;;12.40;59.80;;;;;;4999512;28;20465;-54
2022/03/30 11:35:43;;;;;;;7.20;2.07;;;12.60;59.70;;;;;;4999144;28;20473;-49
2022/03/30 11:38:23;;;;;;;5.70;2.10;;;12.70;59.70;;;;;;4999411;28;20484;-53
2022/03/30 11:40:58;;;;;;;8.17;2.37;;;12.90;59.90;;;;;;4999161;28;20489;-57
2022/03/30 11:43:25;;;;;;;6.63;2.23;;;13.20;60.00;;;;;;4999274;28;20698;-53
2022/03/30 11:45:52;;;;;;;10.77;2.87;;;13.30;59.60;;;;;;4998863;28;20497;-51
2022/03/30 11:48:19;;;;;;;9.50;3.70;;;13.30;59.60;;;;;;4999232;28;20572;-53
2022/03/30 11:50:47;;;;;;;6.43;3.40;;;13.20;59.60;;;;;;4998861;28;20497;-56
2022/03/30 11:53:16;;;;;;;5.90;2.33;;;13.20;59.90;;;;;;4999189;28;20483;-56
2022/03/30 11:55:54;;;;;;;6.00;2.70;;;13.00;59.70;;;;;;4998796;28;21004;-52
2022/03/30 11:58:25;;;;;;;7.93;2.70;;;13.00;59.60;;;;;;4999153;28;20430;-55
2022/03/30 12:00:53;;;;;;;4.70;2.40;;;12.80;59.10;;;;;;4999123;28;20485;-51
2022/03/30 12:03:21;;;;;;;7.23;2.70;;;12.80;59.80;;;;;;4998829;28;20456;-51
2022/03/30 12:05:51;;;;;;;8.60;2.30;;;12.70;60.20;;;;;;4998822;28;20497;-54
2022/03/30 12:08:19;;;;;;;2.77;1.90;;;12.70;60.10;;;;;;4998775;28;20533;-62
2022/03/30 12:10:48;;;;;;;6.53;2.30;;;12.70;60.60;;;;;;4998711;28;20469;-55
2022/03/30 12:13:22;;;;;;;5.20;2.87;;;12.80;60.80;;;;;;4998865;28;20464;-55
2022/03/30 12:16:04;;;;;;;4.30;2.80;;;12.80;60.90;;;;;;4998403;28;20615;-53
2022/03/30 12:18:32;;;;;;;4.07;2.07;;;12.90;60.70;;;;;;4998669;28;20450;-55
2022/03/30 12:21:01;;;;;;;4.03;2.90;;;12.90;60.50;;;;;;4998686;28;20465;-50
2022/03/30 12:23:29;;;;;;;7.37;3.80;;;12.90;60.40;;;;;;4998355;28;20453;-55
2022/03/30 12:25:56;;;;;;;7.97;3.83;;;12.90;60.50;;;;;;4998100;28;20946;-56
2022/03/30 12:28:31;;;;;;;10.33;2.90;;;12.90;60.60;;;;;;4998356;28;21080;-57
2022/03/30 12:30:59;;;;;;;5.23;2.47;;;12.90;60.80;;;;;;4998268;28;20469;-49
2022/03/30 12:33:26;;;;;;;6.47;2.60;;;12.80;60.30;;;;;;4998334;28;20462;-55
2022/03/30 12:35:54;;;;;;;7.00;2.90;;;12.80;60.10;;;;;;4998374;28;20477;-55
2022/03/30 12:38:24;;;;;;;2.60;2.00;;;12.50;60.60;;;;;;4998446;28;20958;-57
2022/03/30 12:40:53;;;;;;;7.03;2.50;;;12.40;61.60;;;;;;4998422;28;20560;-55
2022/03/30 12:43:24;;;;;;;3.80;2.77;;;12.30;61.60;;;;;;4998607;28;20797;-55
2022/03/30 12:45:57;;;;;;;6.67;2.97;;;12.20;61.50;;;;;;4998289;28;20608;-54
2022/03/30 12:48:28;;;;;;;7.73;2.83;;;12.20;61.80;;;;;;4998187;28;21129;-56
2022/03/30 12:50:59;;;;;;;4.53;2.70;;;12.10;62.00;;;;;;4997815;28;20473;-52
2022/03/30 12:53:31;;;;;;;4.57;2.40;;;12.00;62.00;;;;;;4998053;28;20477;-51
2022/03/30 12:56:11;;;;;;;9.43;2.80;;;11.90;62.00;;;;;;4997991;28;20489;-54
2022/03/30 12:58:50;;;;;;;6.83;2.57;;;11.90;62.60;;;;;;4997972;28;20461;-55
2022/03/30 13:01:33;;;;;;;6.20;2.23;;;11.80;63.00;;;;;;4997661;28;20942;-53
2022/03/30 13:04:00;;;;;;;7.50;3.17;;;11.80;62.60;;;;;;4998090;28;20441;-53
2022/03/30 13:06:27;;;;;;;4.20;2.80;;;11.80;63.00;;;;;;4997692;28;20481;-54
2022/03/30 13:09:08;;;;;;;8.20;2.93;;;11.80;62.90;;;;;;4998054;28;20532;-52
2022/03/30 13:11:42;;;;;;;4.10;2.77;;;11.80;62.80;;;;;;4997733;28;20493;-53
2022/03/30 13:14:14;;;;;;;12.37;3.13;;;11.70;63.20;;;;;;4998249;28;20434;-49